Time;durP1;ratioP1;P1;durP2;ratioP2;P2;SDS_P1;SDS_P2;PMS_P1;PMS_P2;Temp;Humidity;BMP_temperature;BMP_pressure;BME280_temperature;BME280_humidity;BME280_pressure;Samples;Min_cycle;Max_cycle;Signal;HPM_P1;HPM_P2
2024/04/08 00:01:06;;;;;;;;;;;;;;;19.97;54.13;101334.72;5024491;28;19975;-91
2024/04/08 00:03:31;;;;;;;;;;;;;;;19.92;54.36;101332.88;5025459;28;19924;-91
2024/04/08 00:05:56;;;;;;;;;;;;;;;19.89;54.40;101321.78;5029453;28;19925;-91
2024/04/08 00:08:22;;;;;;;;;;;;;;;19.87;54.41;101324.00;5018730;28;19918;-91
2024/04/08 00:10:47;;;;;;;;;;;;;;;19.84;54.56;101316.44;5031534;28;19963;-91
2024/04/08 00:13:12;;;;;;;;;;;;;;;19.82;54.76;101315.94;5032935;28;20488;-90
2024/04/08 00:15:37;;;;;;;;;;;;;;;19.81;54.68;101320.56;5031628;28;20036;-91
2024/04/08 00:18:03;;;;;;;;;;;;;;;19.80;54.85;101310.00;5028697;28;19921;-90
2024/04/08 00:20:28;;;;;;;;;;;;;;;19.81;54.57;101309.69;5027064;28;19917;-91
2024/04/08 00:22:54;;;;;;;;;;;;;;;19.82;54.66;101305.06;5027373;28;19927;-91
2024/04/08 00:25:19;;;;;;;;;;;;;;;19.82;54.38;101294.19;5024811;28;19918;-90
2024/04/08 00:27:45;;;;;;;;;;;;;;;19.82;54.34;101286.03;5031714;28;20300;-91
2024/04/08 00:30:10;;;;;;;;;;;;;;;19.82;54.59;101272.44;5029196;28;19923;-91
2024/04/08 00:32:35;;;;;;;;;;;;;;;19.79;54.29;101268.41;5027316;28;19917;-91
2024/04/08 00:35:01;;;;;;;;;;;;;;;19.79;54.46;101256.72;5026593;28;19920;-91
2024/04/08 00:37:26;;;;;;;;;;;;;;;19.78;54.65;101255.09;5023354;28;20365;-91
2024/04/08 00:39:51;;;;;;;;;;;;;;;19.77;54.62;101259.75;5028855;28;19963;-91
2024/04/08 00:42:16;;;;;;;;;;;;;;;19.77;54.79;101257.00;5031131;28;19951;-90
2024/04/08 00:44:42;;;;;;;;;;;;;;;19.79;54.49;101259.44;5030171;28;20377;-93
2024/04/08 00:47:09;;;;;;;;;;;;;;;19.80;54.61;101256.41;5024959;28;19925;-90
2024/04/08 00:49:34;;;;;;;;;;;;;;;19.82;54.85;101258.84;5029813;28;19917;-91
2024/04/08 00:51:59;;;;;;;;;;;;;;;19.80;54.81;101259.13;5031412;28;19917;-90
2024/04/08 00:54:25;;;;;;;;;;;;;;;19.78;54.67;101271.41;5028392;28;19963;-91
2024/04/08 00:56:51;;;;;;;;;;;;;;;19.77;54.41;101276.03;5024520;28;19917;-90
2024/04/08 00:59:18;;;;;;;;;;;;;;;19.77;54.91;101276.03;5022831;28;19920;-91
2024/04/08 01:01:44;;;;;;;;;;;;;;;19.75;55.07;101283.69;5026129;28;19921;-91
2024/04/08 01:04:09;;;;;;;;;;;;;;;19.73;55.02;101295.94;5030335;28;19970;-91
2024/04/08 01:06:35;;;;;;;;;;;;;;;19.75;55.11;101304.63;5032243;28;19921;-91
2024/04/08 01:09:00;;;;;;;;;;;;;;;19.74;55.24;101308.44;5026906;28;20349;-91
2024/04/08 01:11:26;;;;;;;;;;;;;;;19.73;55.45;101301.38;5022411;28;19921;-91
2024/04/08 01:13:51;;;;;;;;;;;;;;;19.67;55.47;101308.81;5018064;28;19921;-90
2024/04/08 01:16:16;;;;;;;;;;;;;;;19.64;55.68;101306.69;5022340;28;19928;-91
2024/04/08 01:18:42;;;;;;;;;;;;;;;19.63;55.65;101307.81;5023573;28;20011;-91
2024/04/08 01:21:07;;;;;;;;;;;;;;;19.59;56.08;101302.16;5020775;28;20024;-91
2024/04/08 01:23:40;;;;;;;;;;;;;;;19.57;55.82;101307.06;5027757;28;20009;-91
2024/04/08 01:26:06;;;;;;;;;;;;;;;19.55;56.31;101301.09;5025277;28;19921;-91
2024/04/08 01:28:31;;;;;;;;;;;;;;;19.55;56.36;101309.25;5030904;28;19975;-91
2024/04/08 01:31:00;;;;;;;;;;;;;;;19.52;57.33;101300.84;5033735;28;19964;-91
2024/04/08 01:33:25;;;;;;;;;;;;;;;19.49;56.99;101301.44;5035042;28;20325;-90
2024/04/08 01:35:50;;;;;;;;;;;;;;;19.47;57.17;101303.66;5028981;28;19916;-91
2024/04/08 01:38:17;;;;;;;;;;;;;;;19.45;57.34;101301.25;5022861;28;19917;-91
2024/04/08 01:40:43;;;;;;;;;;;;;;;19.43;57.27;101297.19;5034484;28;19956;-91
2024/04/08 01:43:08;;;;;;;;;;;;;;;19.41;57.48;101293.97;5032893;28;19953;-91
2024/04/08 01:45:33;;;;;;;;;;;;;;;19.39;57.66;101301.59;5032332;28;19921;-91
2024/04/08 01:47:58;;;;;;;;;;;;;;;19.37;57.41;101298.34;5035036;28;19917;-91
2024/04/08 01:50:24;;;;;;;;;;;;;;;19.38;57.49;101298.06;5032872;28;20370;-91
2024/04/08 01:52:49;;;;;;;;;;;;;;;19.42;57.05;101298.31;5028614;28;20012;-91
2024/04/08 01:55:14;;;;;;;;;;;;;;;19.44;56.86;101299.63;5026579;28;20390;-90
2024/04/08 01:57:39;;;;;;;;;;;;;;;19.47;56.86;101298.22;5025184;28;20427;-91
2024/04/08 02:00:07;;;;;;;;;;;;;;;19.47;57.06;101296.31;5028200;28;20381;-91
2024/04/08 02:02:32;;;;;;;;;;;;;;;19.49;56.77;101296.81;5027403;28;19931;-91
2024/04/08 02:04:58;;;;;;;;;;;;;;;19.51;56.86;101289.19;5025790;28;20368;-91
2024/04/08 02:07:23;;;;;;;;;;;;;;;19.53;56.68;101269.84;5028534;28;19917;-91
2024/04/08 02:09:48;;;;;;;;;;;;;;;19.53;57.04;101207.34;5027905;28;19924;-91
2024/04/08 02:12:13;;;;;;;;;;;;;;;19.49;57.91;101146.53;5020144;28;20012;-92
2024/04/08 02:14:38;;;;;;;;;;;;;;;19.43;57.43;101143.13;5032216;28;19956;-91
2024/04/08 02:17:04;;;;;;;;;;;;;;;19.43;57.19;101159.44;5029931;28;19960;-92
2024/04/08 02:19:29;;;;;;;;;;;;;;;19.43;57.22;101183.88;5035449;28;19924;-92
2024/04/08 02:21:54;;;;;;;;;;;;;;;19.46;57.39;101182.47;5025584;28;19943;-91
2024/04/08 02:24:19;;;;;;;;;;;;;;;19.49;56.97;101184.59;5024651;28;19971;-91
2024/04/08 02:26:45;;;;;;;;;;;;;;;19.51;57.31;101180.47;5027054;28;20024;-91
2024/04/08 02:29:10;;;;;;;;;;;;;;;19.53;57.16;101189.13;5020424;28;19952;-91
2024/04/08 02:31:35;;;;;;;;;;;;;;;19.55;57.07;101197.81;5023507;28;20332;-92
2024/04/08 02:34:40;;;;;;;;;;;;;;;19.58;57.19;101201.88;5027515;28;20286;-92
2024/04/08 02:37:06;;;;;;;;;;;;;;;19.59;57.11;101195.34;5026736;28;19921;-91
2024/04/08 02:39:31;;;;;;;;;;;;;;;19.64;56.75;101197.97;5029997;28;19917;-91
2024/04/08 02:41:58;;;;;;;;;;;;;;;19.69;56.50;101197.88;5028486;28;19928;-91
2024/04/08 02:44:34;;;;;;;;;;;;;;;19.75;56.55;101199.41;5028291;28;19925;-91
2024/04/08 02:47:06;;;;;;;;;;;;;;;19.77;56.49;101199.13;5022125;28;19921;-91
2024/04/08 02:49:36;;;;;;;;;;;;;;;19.80;56.44;101199.31;5029475;28;19924;-91
2024/04/08 02:52:07;;;;;;;;;;;;;;;19.81;56.45;101202.84;5029670;28;20635;-91
2024/04/08 02:54:40;;;;;;;;;;;;;;;19.81;56.54;101209.09;5026480;28;19941;-91
2024/04/08 02:57:09;;;;;;;;;;;;;;;19.80;56.54;101209.38;5031960;28;19921;-91
2024/04/08 02:59:37;;;;;;;;;;;;;;;19.76;56.94;101206.47;5030791;28;19932;-91
2024/04/08 03:02:12;;;;;;;;;;;;;;;19.72;57.16;101204.63;5024541;28;19918;-91
2024/04/08 03:04:39;;;;;;;;;;;;;;;19.70;57.08;101206.84;5029988;28;19939;-92
2024/04/08 03:07:05;;;;;;;;;;;;;;;19.68;57.18;101206.31;5029772;28;19925;-91
2024/04/08 03:09:31;;;;;;;;;;;;;;;19.64;57.78;101205.31;5024061;28;19924;-92
2024/04/08 03:11:57;;;;;;;;;;;;;;;19.59;57.99;101211.66;5025850;28;19925;-91
2024/04/08 03:14:24;;;;;;;;;;;;;;;19.53;58.13;101216.31;5029483;28;19924;-91
2024/04/08 03:16:53;;;;;;;;;;;;;;;19.48;58.70;101221.84;5027375;28;19925;-90
2024/04/08 03:19:24;;;;;;;;;;;;;;;19.42;58.86;101236.63;5027701;28;19917;-91
2024/04/08 03:21:52;;;;;;;;;;;;;;;19.40;58.75;101238.00;5032915;28;19925;-91
2024/04/08 03:24:18;;;;;;;;;;;;;;;19.37;59.08;101244.00;5030564;28;19917;-91
2024/04/08 03:26:45;;;;;;;;;;;;;;;19.35;59.15;101262.53;5031713;28;19929;-90
2024/04/08 03:29:11;;;;;;;;;;;;;;;19.32;59.01;101266.63;5027834;28;19992;-91
2024/04/08 03:31:37;;;;;;;;;;;;;;;19.31;59.03;101260.41;5031997;28;19921;-91
2024/04/08 03:34:02;;;;;;;;;;;;;;;19.29;59.40;101249.03;5029922;28;20012;-91
2024/04/08 03:36:28;;;;;;;;;;;;;;;19.27;59.92;101239.56;5033287;28;20042;-92
2024/04/08 03:38:57;;;;;;;;;;;;;;;19.24;59.77;101229.28;5032722;28;20380;-90
2024/04/08 03:41:32;;;;;;;;;;;;;;;19.19;60.04;101235.56;5023415;28;19921;-91
2024/04/08 03:44:00;;;;;;;;;;;;;;;19.17;60.23;101228.81;5030699;28;20381;-90
2024/04/08 03:46:25;;;;;;;;;;;;;;;19.14;60.55;101237.56;5029627;28;20859;-91
2024/04/08 03:48:51;;;;;;;;;;;;;;;19.12;60.35;101239.78;5022146;28;19918;-91
2024/04/08 03:51:18;;;;;;;;;;;;;;;19.11;60.36;101238.97;5041694;28;19926;-90
2024/04/08 03:53:46;;;;;;;;;;;;;;;19.11;60.29;101240.88;5021064;28;19918;-91
2024/04/08 03:56:12;;;;;;;;;;;;;;;19.10;60.41;101250.13;5032574;28;19948;-91
2024/04/08 03:58:38;;;;;;;;;;;;;;;19.10;60.48;101250.13;5031024;28;19964;-91
2024/04/08 04:01:05;;;;;;;;;;;;;;;19.09;60.33;101237.66;5032486;28;19943;-91
2024/04/08 04:03:33;;;;;;;;;;;;;;;19.07;60.37;101221.66;5031625;28;20543;-92
2024/04/08 04:06:01;;;;;;;;;;;;;;;19.05;60.78;101215.69;5030320;28;19921;-91
2024/04/08 04:08:29;;;;;;;;;;;;;;;19.01;61.27;101220.88;5033105;28;19929;-91
2024/04/08 04:10:55;;;;;;;;;;;;;;;18.98;61.03;101231.53;5031519;28;19924;-91
2024/04/08 04:13:21;;;;;;;;;;;;;;;18.95;61.09;101234.84;5028040;28;20007;-91
2024/04/08 04:15:48;;;;;;;;;;;;;;;18.92;61.30;101230.81;5029154;28;19925;-92
2024/04/08 04:18:14;;;;;;;;;;;;;;;18.89;61.41;101231.38;5026440;28;19917;-91
2024/04/08 04:20:59;;;;;;;;;;;;;;;18.89;61.82;101234.09;5024584;28;19925;-91
2024/04/08 04:23:26;;;;;;;;;;;;;;;18.86;61.94;101248.28;5027242;28;19917;-92
2024/04/08 04:25:54;;;;;;;;;;;;;;;18.82;61.70;101251.84;5024633;28;19925;-91
2024/04/08 04:28:25;;;;;;;;;;;;;;;18.77;61.88;101260.84;5024096;28;20551;-91
2024/04/08 04:31:01;;;;;;;;;;;;;;;18.76;63.38;101269.28;5029682;28;20561;-91
2024/04/08 04:33:29;;;;;;;;;;;;;;;18.73;62.52;101262.53;5023677;28;19929;-89
2024/04/08 04:35:59;;;;;;;;;;;;;;;18.72;62.40;101258.22;5026919;28;19917;-91
2024/04/08 04:38:25;;;;;;;;;;;;;;;18.69;62.02;101250.66;5021532;28;19917;-90
2024/04/08 04:41:03;;;;;;;;;;;;;;;18.71;62.04;101232.16;5024115;28;19929;-90
2024/04/08 04:43:30;;;;;;;;;;;;;;;18.72;61.81;101228.34;5024985;28;19924;-91
2024/04/08 04:46:04;;;;;;;;;;;;;;;18.74;62.32;101253.31;5025078;28;19982;-90
2024/04/08 04:48:31;;;;;;;;;;;;;;;18.77;62.03;101254.63;5023591;28;19917;-90
2024/04/08 04:50:56;;;;;;;;;;;;;;;18.75;61.68;101222.34;5026158;28;19955;-90
2024/04/08 04:53:24;;;;;;;;;;;;;;;18.77;61.58;101214.72;5026508;28;20381;-91
2024/04/08 04:56:09;;;;;;;;;;;;;;;18.78;62.06;101205.47;5024006;28;19917;-91
2024/04/08 04:58:36;;;;;;;;;;;;;;;18.75;62.76;101183.53;5024668;28;19928;-89
2024/04/08 05:01:03;;;;;;;;;;;;;;;18.75;62.38;101159.91;5024543;28;19939;-90
2024/04/08 05:03:28;;;;;;;;;;;;;;;18.77;61.96;101143.31;5025260;28;19917;-90
2024/04/08 05:06:00;;;;;;;;;;;;;;;18.75;62.25;101118.38;5026574;28;19928;-90
2024/04/08 05:08:27;;;;;;;;;;;;;;;18.74;62.25;101106.72;5025711;28;19917;-91
2024/04/08 05:11:03;;;;;;;;;;;;;;;18.70;63.79;101105.69;5024884;28;19924;-90
2024/04/08 05:13:30;;;;;;;;;;;;;;;18.68;62.61;101089.72;5025424;28;19917;-89
2024/04/08 05:16:01;;;;;;;;;;;;;;;18.65;62.78;101084.84;5039393;28;19920;-91
2024/04/08 05:18:27;;;;;;;;;;;;;;;18.67;62.51;101073.69;5026938;28;19917;-90
2024/04/08 05:21:03;;;;;;;;;;;;;;;18.70;62.65;101051.41;5024971;28;20019;-91
2024/04/08 05:23:31;;;;;;;;;;;;;;;18.73;62.53;101047.31;5019035;28;19918;-91
2024/04/08 05:26:00;;;;;;;;;;;;;;;18.76;62.77;101058.38;5026426;28;20428;-92
2024/04/08 05:28:27;;;;;;;;;;;;;;;18.79;62.55;101076.78;5037399;28;19920;-90
2024/04/08 05:30:56;;;;;;;;;;;;;;;18.83;62.69;101085.94;5041051;28;19925;-91
2024/04/08 05:33:23;;;;;;;;;;;;;;;18.90;62.60;101110.81;5028270;28;20007;-91
2024/04/08 05:35:51;;;;;;;;;;;;;;;18.96;62.10;101131.34;5020502;28;19913;-91
2024/04/08 05:38:17;;;;;;;;;;;;;;;19.01;62.05;101163.06;5040992;28;19952;-91
2024/04/08 05:40:42;;;;;;;;;;;;;;;19.01;62.65;101182.06;5025849;28;19917;-90
2024/04/08 05:43:16;;;;;;;;;;;;;;;19.04;62.96;101191.56;5025495;28;19917;-90
2024/04/08 05:45:51;;;;;;;;;;;;;;;19.04;63.43;101186.13;5020625;28;19929;-89
2024/04/08 05:48:16;;;;;;;;;;;;;;;19.02;63.38;101189.09;5025398;28;19948;-90
2024/04/08 05:50:45;;;;;;;;;;;;;;;19.05;63.47;101193.16;5023002;28;19956;-90
2024/04/08 05:53:12;;;;;;;;;;;;;;;19.11;63.48;101186.56;5018063;28;19917;-90
2024/04/08 05:55:39;;;;;;;;;;;;;;;19.13;63.30;101189.78;5022299;28;20352;-90
2024/04/08 05:58:10;;;;;;;;;;;;;;;19.15;63.36;101182.13;5034742;28;19925;-89
2024/04/08 06:00:38;;;;;;;;;;;;;;;19.18;63.51;101187.78;5025301;28;20055;-89
2024/04/08 06:03:06;;;;;;;;;;;;;;;19.22;63.46;101179.88;5029492;28;20015;-90
2024/04/08 06:05:32;;;;;;;;;;;;;;;19.27;63.52;101190.66;5026077;28;19928;-90
2024/04/08 06:08:01;;;;;;;;;;;;;;;19.29;63.72;101193.88;5028639;28;19924;-90
2024/04/08 06:10:30;;;;;;;;;;;;;;;19.29;64.22;101194.69;5027396;28;20008;-90
2024/04/08 06:12:59;;;;;;;;;;;;;;;19.32;63.38;101204.97;5024871;28;19932;-90
2024/04/08 06:15:32;;;;;;;;;;;;;;;19.36;63.69;101209.78;5040491;28;20340;-88
2024/04/08 06:18:02;;;;;;;;;;;;;;;19.35;64.26;101205.47;5028868;28;20000;-88
2024/04/08 06:20:38;;;;;;;;;;;;;;;19.37;64.49;101200.53;5027495;28;19925;-89
2024/04/08 06:23:05;;;;;;;;;;;;;;;19.40;64.21;101203.50;5029402;28;20406;-88
2024/04/08 06:25:43;;;;;;;;;;;;;;;19.47;63.71;101200.41;5031558;28;19921;-89
2024/04/08 06:28:11;;;;;;;;;;;;;;;19.51;63.81;101207.66;5047005;28;20019;-89
2024/04/08 06:30:37;;;;;;;;;;;;;;;19.57;63.30;101206.50;5032455;28;19917;-88
2024/04/08 06:33:09;;;;;;;;;;;;;;;19.59;63.83;101206.22;5028568;28;19937;-89
2024/04/08 06:35:39;;;;;;;;;;;;;;;19.64;64.44;101221.63;5032744;28;19924;-89
2024/04/08 06:38:05;;;;;;;;;;;;;;;19.68;64.27;101220.72;5023884;28;19917;-88
2024/04/08 06:40:31;;;;;;;;;;;;;;;19.69;65.24;101224.25;5028979;28;19940;-88
2024/04/08 06:42:56;;;;;;;;;;;;;;;19.66;65.13;101220.22;5022035;28;20000;-87
2024/04/08 06:45:23;;;;;;;;;;;;;;;19.69;64.90;101230.50;5029482;28;19921;-87
2024/04/08 06:47:59;;;;;;;;;;;;;;;19.71;65.15;101232.91;5030369;28;20401;-89
2024/04/08 06:50:25;;;;;;;;;;;;;;;19.73;64.85;101230.69;5029693;28;19932;-88
2024/04/08 06:52:55;;;;;;;;;;;;;;;19.76;65.23;101239.09;5027537;28;20168;-89
2024/04/08 06:55:24;;;;;;;;;;;;;;;19.72;66.38;101246.19;5031203;28;19925;-89
2024/04/08 06:58:01;;;;;;;;;;;;;;;19.74;65.44;101256.78;5027855;28;19924;-89
2024/04/08 07:00:28;;;;;;;;;;;;;;;19.75;65.54;101259.22;5025999;28;20169;-89
2024/04/08 07:02:55;;;;;;;;;;;;;;;19.76;65.17;101252.69;5027346;28;19922;-89
2024/04/08 07:05:22;;;;;;;;;;;;;;;19.79;65.15;101248.56;5032639;28;20266;-89
2024/04/08 07:07:52;;;;;;;;;;;;;;;19.82;65.52;101256.13;5028464;28;19986;-89
2024/04/08 07:10:19;;;;;;;;;;;;;;;19.86;65.54;101268.00;5030547;28;19964;-88
2024/04/08 07:12:49;;;;;;;;;;;;;;;19.90;66.29;101269.03;5027266;28;20404;-88
2024/04/08 07:15:19;;;;;;;;;;;;;;;19.95;66.12;101276.31;5028189;28;20020;-89
2024/04/08 07:17:47;;;;;;;;;;;;;;;19.98;65.63;101281.94;5030147;28;19921;-88
2024/04/08 07:20:12;;;;;;;;;;;;;;;19.99;65.60;101282.75;5024375;28;19924;-89
2024/04/08 07:22:38;;;;;;;;;;;;;;;19.96;66.72;101283.34;5025253;28;20385;-89
2024/04/08 07:25:05;;;;;;;;;;;;;;;19.96;66.13;101281.44;5026137;28;19925;-89
2024/04/08 07:27:30;;;;;;;;;;;;;;;19.96;66.02;101278.72;5026980;28;19925;-88
2024/04/08 07:29:59;;;;;;;;;;;;;;;20.02;66.17;101277.53;5024314;28;19925;-89
2024/04/08 07:32:39;;;;;;;;;;;;;;;20.10;66.38;101279.53;5021915;28;19921;-88
2024/04/08 07:35:05;;;;;;;;;;;;;;;20.17;66.43;101274.53;5026345;28;19925;-89
2024/04/08 07:37:32;;;;;;;;;;;;;;;20.22;65.72;101270.91;5031901;28;19913;-89
2024/04/08 07:40:00;;;;;;;;;;;;;;;20.28;66.26;101263.44;5028957;28;19921;-88
2024/04/08 07:42:26;;;;;;;;;;;;;;;20.29;66.35;101265.91;5044999;28;19987;-88
2024/04/08 07:45:02;;;;;;;;;;;;;;;20.33;65.82;101261.47;5023315;28;20609;-88
2024/04/08 07:47:31;;;;;;;;;;;;;;;20.43;65.71;101255.84;5030216;28;19925;-88
2024/04/08 07:49:57;;;;;;;;;;;;;;;20.56;65.51;101259.69;5025684;28;19980;-88
2024/04/08 07:52:24;;;;;;;;;;;;;;;20.68;65.62;101256.47;5025749;28;20382;-89
2024/04/08 07:54:54;;;;;;;;;;;;;;;20.79;65.20;101257.84;5024372;28;20402;-89
2024/04/08 07:57:30;;;;;;;;;;;;;;;20.90;65.20;101258.47;5030619;28;19917;-89
2024/04/08 07:59:57;;;;;;;;;;;;;;;21.00;64.61;101252.78;5022957;28;19925;-90
2024/04/08 08:02:29;;;;;;;;;;;;;;;21.12;65.04;101242.97;5024201;28;19923;-88
2024/04/08 08:04:58;;;;;;;;;;;;;;;21.22;64.85;101247.41;5025456;28;20570;-89
2024/04/08 08:07:25;;;;;;;;;;;;;;;21.32;64.72;101255.34;5029435;28;19932;-89
2024/04/08 08:09:53;;;;;;;;;;;;;;;21.40;64.21;101257.38;5025194;28;20074;-89
2024/04/08 08:12:20;;;;;;;;;;;;;;;21.46;64.42;101262.69;5025820;28;20421;-89
2024/04/08 08:14:46;;;;;;;;;;;;;;;21.50;64.36;101266.41;5027106;28;19943;-90
2024/04/08 08:17:13;;;;;;;;;;;;;;;21.56;64.50;101276.09;5025772;28;20056;-90
2024/04/08 08:19:40;;;;;;;;;;;;;;;21.64;64.28;101276.16;5027498;28;19917;-89
2024/04/08 08:22:08;;;;;;;;;;;;;;;21.72;64.15;101269.13;5028174;28;20040;-89
2024/04/08 08:24:37;;;;;;;;;;;;;;;21.84;64.40;101257.66;5026138;28;19996;-90
2024/04/08 08:27:04;;;;;;;;;;;;;;;21.96;64.25;101244.28;5024741;28;19936;-89
2024/04/08 08:29:32;;;;;;;;;;;;;;;22.08;63.68;101235.50;5043194;28;19921;-89
2024/04/08 08:32:01;;;;;;;;;;;;;;;22.17;63.58;101222.72;5026248;28;19949;-89
2024/04/08 08:34:31;;;;;;;;;;;;;;;22.22;63.06;101203.47;5025388;28;19948;-91
2024/04/08 08:36:59;;;;;;;;;;;;;;;22.22;62.85;101215.19;5028005;28;19952;-89
2024/04/08 08:39:27;;;;;;;;;;;;;;;22.21;62.33;101193.69;5027174;28;20386;-90
2024/04/08 08:42:01;;;;;;;;;;;;;;;22.16;62.34;101141.97;5029246;28;19921;-90
2024/04/08 08:44:28;;;;;;;;;;;;;;;22.11;62.69;101112.13;5027716;28;19953;-89
2024/04/08 08:46:53;;;;;;;;;;;;;;;22.07;62.56;101094.75;5029206;28;19925;-90
2024/04/08 08:49:20;;;;;;;;;;;;;;;22.02;63.23;101074.66;5029510;28;20381;-90
2024/04/08 08:51:47;;;;;;;;;;;;;;;21.97;63.52;101076.72;5028103;28;19959;-90
2024/04/08 08:54:13;;;;;;;;;;;;;;;21.96;63.20;101066.94;5026595;28;19921;-89
2024/04/08 08:56:40;;;;;;;;;;;;;;;21.99;64.10;101090.84;5023399;28;20000;-89
2024/04/08 08:59:08;;;;;;;;;;;;;;;22.05;63.87;101110.63;5023210;28;19928;-90
2024/04/08 09:01:34;;;;;;;;;;;;;;;22.11;63.44;101101.19;5027841;28;19971;-89
2024/04/08 09:04:04;;;;;;;;;;;;;;;22.20;63.55;101115.66;5030319;28;20020;-89
2024/04/08 09:06:29;;;;;;;;;;;;;;;22.28;63.19;101156.66;5028883;28;20063;-90
2024/04/08 09:08:57;;;;;;;;;;;;;;;22.39;63.54;101121.66;5023810;28;20154;-90
2024/04/08 09:11:27;;;;;;;;;;;;;;;22.48;62.93;101111.56;5025016;28;19925;-91
2024/04/08 09:14:05;;;;;;;;;;;;;;;22.57;62.43;101117.81;5029857;28;19927;-90
2024/04/08 09:16:32;;;;;;;;;;;;;;;22.64;61.80;101100.16;5027920;28;20298;-90
2024/04/08 09:19:07;;;;;;;;;;;;;;;22.73;62.03;101084.56;5026962;28;20431;-90
2024/04/08 09:21:34;;;;;;;;;;;;;;;22.81;62.07;101060.00;5030025;28;20251;-90
2024/04/08 09:24:00;;;;;;;;;;;;;;;22.88;61.29;101043.94;5030119;28;20340;-91
2024/04/08 09:26:27;;;;;;;;;;;;;;;22.91;61.03;101043.28;5029822;28;20000;-90
2024/04/08 09:28:52;;;;;;;;;;;;;;;22.96;61.05;101039.56;5030022;28;19924;-90
2024/04/08 09:31:20;;;;;;;;;;;;;;;23.01;60.97;101044.91;5026178;28;19917;-91
2024/04/08 09:33:56;;;;;;;;;;;;;;;23.09;60.97;101038.59;5027226;28;19928;-90
2024/04/08 09:36:26;;;;;;;;;;;;;;;23.21;60.71;101038.75;5031663;28;19921;-91
2024/04/08 09:39:03;;;;;;;;;;;;;;;23.34;60.27;101026.00;5029414;28;19924;-91
2024/04/08 09:41:31;;;;;;;;;;;;;;;23.44;60.45;101014.69;5029228;28;19980;-91
2024/04/08 09:43:59;;;;;;;;;;;;;;;23.54;60.20;101018.19;5024373;28;19929;-91
2024/04/08 09:46:33;;;;;;;;;;;;;;;23.57;59.75;101031.25;5028416;28;19941;-92
2024/04/08 09:48:59;;;;;;;;;;;;;;;23.61;59.80;101024.78;5048163;28;20377;-92
2024/04/08 09:51:25;;;;;;;;;;;;;;;23.65;59.53;101025.72;5014782;28;19932;-91
2024/04/08 09:53:53;;;;;;;;;;;;;;;23.71;59.65;101026.34;5034565;28;19921;-91
2024/04/08 09:56:22;;;;;;;;;;;;;;;23.77;59.83;101027.75;5027535;28;19929;-92
2024/04/08 09:59:03;;;;;;;;;;;;;;;23.88;59.81;101019.97;5030086;28;19917;-91
2024/04/08 10:01:28;;;;;;;;;;;;;;;23.98;59.69;101017.66;5030367;28;20388;-91
2024/04/08 10:03:57;;;;;;;;;;;;;;;24.11;59.50;101004.84;5032985;28;19914;-90
2024/04/08 10:06:26;;;;;;;;;;;;;;;24.23;59.07;101015.06;5026721;28;20495;-91
2024/04/08 10:08:57;;;;;;;;;;;;;;;24.27;59.15;100997.66;5031094;28;20524;-91
2024/04/08 10:11:23;;;;;;;;;;;;;;;24.34;59.26;100989.72;5028185;28;19922;-91
2024/04/08 10:13:49;;;;;;;;;;;;;;;24.44;59.27;101001.41;5031388;28;19913;-91
2024/04/08 10:16:27;;;;;;;;;;;;;;;24.61;58.96;100993.06;5027178;28;19953;-92
2024/04/08 10:18:53;;;;;;;;;;;;;;;24.88;58.07;100999.84;5029817;28;20385;-92
2024/04/08 10:21:22;;;;;;;;;;;;;;;25.14;57.84;100988.66;5026531;28;19963;-91
2024/04/08 10:23:51;;;;;;;;;;;;;;;25.42;57.55;100986.03;5029400;28;19921;-91
2024/04/08 10:26:17;;;;;;;;;;;;;;;25.68;56.76;101007.69;5026675;28;20285;-91
2024/04/08 10:28:45;;;;;;;;;;;;;;;25.82;55.47;101006.19;5029238;28;19936;-90
2024/04/08 10:31:13;;;;;;;;;;;;;;;25.90;55.73;100993.50;5024223;28;19917;-91
2024/04/08 10:33:40;;;;;;;;;;;;;;;26.02;56.33;101007.16;5026945;28;19951;-91
2024/04/08 10:36:16;;;;;;;;;;;;;;;26.13;55.57;101030.28;5029634;28;19924;-91
2024/04/08 10:38:42;;;;;;;;;;;;;;;26.16;54.96;101015.84;5029019;28;19952;-92
2024/04/08 10:41:08;;;;;;;;;;;;;;;26.15;54.66;101016.19;5032420;28;19959;-91
2024/04/08 10:43:37;;;;;;;;;;;;;;;26.13;54.46;101002.81;5027483;28;19973;-91
2024/04/08 10:46:14;;;;;;;;;;;;;;;26.14;55.06;101003.59;5023552;28;19928;-91
2024/04/08 10:48:42;;;;;;;;;;;;;;;26.19;55.69;100995.13;5028088;28;20297;-91
2024/04/08 10:51:09;;;;;;;;;;;;;;;26.29;55.58;100996.59;5025736;28;19925;-91
2024/04/08 10:53:38;;;;;;;;;;;;;;;26.36;55.22;100989.38;5022654;28;19913;-91
2024/04/08 10:56:07;;;;;;;;;;;;;;;26.54;55.40;100989.09;5029454;28;19921;-90
2024/04/08 10:58:35;;;;;;;;;;;;;;;26.76;54.90;100988.53;5034039;28;19948;-91
2024/04/08 11:01:06;;;;;;;;;;;;;;;27.00;54.71;100988.41;5045241;28;19921;-91
2024/04/08 11:03:31;;;;;;;;;;;;;;;27.14;51.31;100989.94;5022519;28;19913;-90
2024/04/08 11:05:57;;;;;;;;;;;;;;;27.23;52.27;100994.09;5019527;28;19932;-90
2024/04/08 11:08:22;;;;;;;;;;;;;;;27.32;53.54;100992.00;5027131;28;19945;-88
2024/04/08 11:10:52;;;;;;;;;;;;;;;27.47;53.17;100995.91;5025194;28;20032;-90
2024/04/08 11:13:22;;;;;;;;;;;;;;;27.59;52.61;101000.47;5025171;28;19913;-90
2024/04/08 11:15:48;;;;;;;;;;;;;;;27.79;52.62;101002.16;5021278;28;20405;-90
2024/04/08 11:18:20;;;;;;;;;;;;;;;27.96;52.32;101003.72;5027272;28;19925;-89
2024/04/08 11:20:48;;;;;;;;;;;;;;;28.11;50.29;101002.09;5020454;28;19921;-89
2024/04/08 11:23:19;;;;;;;;;;;;;;;28.22;52.01;101006.66;5024084;28;19920;-90
2024/04/08 11:25:53;;;;;;;;;;;;;;;28.38;52.22;101014.91;5032623;28;19921;-90
2024/04/08 11:28:23;;;;;;;;;;;;;;;28.54;50.97;101001.81;5020043;28;19918;-90
2024/04/08 11:30:49;;;;;;;;;;;;;;;28.63;51.36;101007.13;5021223;28;19921;-90
2024/04/08 11:33:15;;;;;;;;;;;;;;;28.61;48.80;101012.22;5029503;28;19917;-90
2024/04/08 11:35:40;;;;;;;;;;;;;;;28.63;51.35;101006.34;5029026;28;19923;-90
2024/04/08 11:38:06;;;;;;;;;;;;;;;28.75;51.50;101006.19;5032544;28;20321;-90
2024/04/08 11:40:34;;;;;;;;;;;;;;;28.87;49.05;101003.28;5027499;28;19926;-90
2024/04/08 11:43:02;;;;;;;;;;;;;;;28.97;50.73;101012.91;5022709;28;19921;-91
2024/04/08 11:45:31;;;;;;;;;;;;;;;29.10;50.35;101004.09;5021743;28;19927;-90
2024/04/08 11:47:58;;;;;;;;;;;;;;;29.25;50.32;101012.59;5027249;28;19921;-90
2024/04/08 11:50:24;;;;;;;;;;;;;;;29.40;50.64;101006.16;5022423;28;19922;-90
2024/04/08 11:52:50;;;;;;;;;;;;;;;29.57;49.64;100997.41;5020032;28;19921;-90
2024/04/08 11:55:18;;;;;;;;;;;;;;;29.71;49.72;100999.56;5023516;28;19919;-90
2024/04/08 11:57:55;;;;;;;;;;;;;;;29.88;50.07;100996.28;5020362;28;19943;-89
2024/04/08 12:00:32;;;;;;;;;;;;;;;30.00;48.31;100986.97;5019372;28;19918;-90
2024/04/08 12:03:00;;;;;;;;;;;;;;;30.12;48.03;100972.94;5028459;28;20320;-90
2024/04/08 12:05:26;;;;;;;;;;;;;;;30.22;47.98;100977.03;5028901;28;19917;-90
2024/04/08 12:07:52;;;;;;;;;;;;;;;30.31;47.72;100975.53;5026547;28;19921;-90
2024/04/08 12:10:20;;;;;;;;;;;;;;;30.43;48.12;100976.47;5024576;28;19933;-90
2024/04/08 12:12:46;;;;;;;;;;;;;;;30.58;47.48;100972.69;5024940;28;19921;-90
2024/04/08 12:15:12;;;;;;;;;;;;;;;30.67;48.05;100975.97;5013317;28;20503;-90
2024/04/08 12:17:38;;;;;;;;;;;;;;;30.78;47.83;100965.81;5028479;28;19928;-90
2024/04/08 12:20:04;;;;;;;;;;;;;;;30.89;46.45;100972.28;5027929;28;20384;-91
2024/04/08 12:22:30;;;;;;;;;;;;;;;30.97;46.99;100982.22;5031080;28;19917;-89
2024/04/08 12:25:02;;;;;;;;;;;;;;;30.97;46.51;100979.44;5028412;28;20067;-90
2024/04/08 12:27:30;;;;;;;;;;;;;;;31.06;46.57;100983.84;5028783;28;19987;-91
2024/04/08 12:29:58;;;;;;;;;;;;;;;31.03;46.63;100977.13;5025739;28;19925;-91
2024/04/08 12:32:25;;;;;;;;;;;;;;;31.07;46.13;100975.19;5019278;28;19928;-90
2024/04/08 12:34:51;;;;;;;;;;;;;;;31.13;45.77;100972.88;5022764;28;19925;-89
2024/04/08 12:37:17;;;;;;;;;;;;;;;31.10;45.30;100971.66;5025130;28;19928;-88
2024/04/08 12:39:43;;;;;;;;;;;;;;;31.16;45.39;100964.59;5044001;28;20016;-90